Aviation Digital Data Service (ADDS)

Output produced by METARs form (0310 UTC 28 February 2017)
found at http://aviationweather.gov/adds/metars/
 
KPQI 280150Z 2802/2824 34007KT P6SM BKN045 
     FM280330 29004KT P6SM SCT050 
     FM280500 VRB02KT P6SM SCT060 
     FM282000 17006KT P6SM SCT120 BKN220